createdAt,value
2023-02-14T00:00:02.493Z,37.47
2023-02-14T00:02:36.081Z,36.15
2023-02-14T00:05:03.646Z,36.88
2023-02-14T00:07:32.242Z,32.70
2023-02-14T00:09:59.817Z,34.42
2023-02-14T00:12:28.814Z,34.85
2023-02-14T00:15:14.279Z,35.15
2023-02-14T00:17:41.842Z,31.48
2023-02-14T00:20:10.165Z,35.05
2023-02-14T00:22:37.685Z,31.70
2023-02-14T00:25:05.659Z,38.30
2023-02-14T00:27:34.657Z,35.03
2023-02-14T00:30:03.317Z,37.60
2023-02-14T00:32:31.233Z,32.22
2023-02-14T00:34:59.087Z,33.53
2023-02-14T00:37:26.695Z,37.47
2023-02-14T00:39:54.429Z,33.65
2023-02-14T00:42:22.018Z,37.13
2023-02-14T00:44:51.007Z,36.45
2023-02-14T00:47:20.991Z,33.17
2023-02-14T00:49:48.623Z,33.92
2023-02-14T00:52:16.329Z,35.97
2023-02-14T00:54:44.034Z,34.67
2023-02-14T00:57:11.832Z,36.63
2023-02-14T00:59:39.442Z,33.85
2023-02-14T01:02:08.445Z,35.55
2023-02-14T01:04:36.272Z,35.08
2023-02-14T01:07:03.884Z,34.40
2023-02-14T01:09:31.697Z,32.83
2023-02-14T01:12:02.916Z,34.92
2023-02-14T01:14:30.639Z,35.55
2023-02-14T01:16:58.213Z,34.67
2023-02-14T01:19:27.204Z,33.47
2023-02-14T01:21:54.859Z,38.40
2023-02-14T01:24:25.086Z,39.42
2023-02-14T01:26:52.655Z,38.10
2023-02-14T01:29:20.206Z,38.42
2023-02-14T01:31:48.942Z,35.78
2023-02-14T01:34:16.708Z,36.03
2023-02-14T01:36:46.623Z,38.75
2023-02-14T01:39:16.052Z,33.80
2023-02-14T01:41:48.742Z,34.10
2023-02-14T01:44:54.629Z,35.00
2023-02-14T01:47:23.055Z,35.95
2023-02-14T01:49:53.556Z,35.30
2023-02-14T01:52:27.264Z,37.70
2023-02-14T01:54:58.848Z,34.20
2023-02-14T01:57:34.450Z,35.53
2023-02-14T02:00:17.399Z,36.35
2023-02-14T02:02:45.582Z,39.47
2023-02-14T02:05:13.418Z,34.80
2023-02-14T02:07:43.153Z,34.20
2023-02-14T02:10:11.541Z,35.88
2023-02-14T02:12:39.793Z,35.42
2023-02-14T02:15:08.672Z,39.60
2023-02-14T02:17:48.663Z,36.95
2023-02-14T02:20:42.184Z,37.05
2023-02-14T02:23:42.052Z,38.72
2023-02-14T02:26:44.036Z,34.50
2023-02-14T02:29:47.292Z,35.80
2023-02-14T02:32:42.487Z,37.85
2023-02-14T02:35:21.813Z,41.28
2023-02-14T02:38:02.583Z,40.40
2023-02-14T02:40:40.171Z,36.13
2023-02-14T02:43:23.417Z,36.13
2023-02-14T02:46:17.341Z,40.72
2023-02-14T02:48:55.965Z,35.05
2023-02-14T02:51:59.316Z,40.45
2023-02-14T02:54:36.018Z,37.13
2023-02-14T02:57:08.383Z,40.35
2023-02-14T02:59:40.162Z,38.03
2023-02-14T03:02:12.254Z,38.67
2023-02-14T03:04:54.978Z,39.10
2023-02-14T03:07:39.176Z,39.30
2023-02-14T03:10:13.469Z,38.83
2023-02-14T03:12:58.519Z,38.33
2023-02-14T03:15:37.902Z,37.65
2023-02-14T03:18:27.118Z,35.42
2023-02-14T03:20:57.321Z,41.08
2023-02-14T03:23:30.603Z,35.90
2023-02-14T03:26:13.134Z,40.50
2023-02-14T03:28:47.704Z,36.33
2023-02-14T03:31:21.155Z,38.25
2023-02-14T03:33:56.439Z,38.42
2023-02-14T03:36:29.176Z,36.72
2023-02-14T03:39:07.503Z,37.30
2023-02-14T03:41:41.618Z,34.20
2023-02-14T03:44:11.974Z,35.25
2023-02-14T03:46:43.544Z,36.05
2023-02-14T03:49:15.225Z,38.60
2023-02-14T03:51:45.267Z,36.47
2023-02-14T03:54:15.332Z,40.15
2023-02-14T03:56:47.399Z,36.25
2023-02-14T03:59:17.145Z,37.58
2023-02-14T04:01:49.939Z,39.70
2023-02-14T04:04:22.704Z,34.90
2023-02-14T04:06:50.341Z,39.15
2023-02-14T04:09:19.283Z,39.58
2023-02-14T04:11:50.277Z,36.13
2023-02-14T04:14:18.131Z,41.30
2023-02-14T04:17:03.366Z,37.83
2023-02-14T04:19:30.938Z,38.13
2023-02-14T04:21:58.467Z,41.67
2023-02-14T04:24:27.616Z,39.40
2023-02-14T04:27:09.804Z,39.45
2023-02-14T04:29:38.829Z,38.75
2023-02-14T04:32:07.981Z,37.65
2023-02-14T04:34:36.005Z,41.47
2023-02-14T04:37:03.658Z,39.28
2023-02-14T04:39:33.000Z,45.17
2023-02-14T04:42:00.607Z,41.45
2023-02-14T04:44:28.226Z,37.15
2023-02-14T04:46:55.850Z,41.15
2023-02-14T04:49:23.646Z,41.08
2023-02-14T04:51:51.364Z,41.58
2023-02-14T04:54:18.985Z,40.40
2023-02-14T04:56:47.919Z,38.90
2023-02-14T04:59:15.728Z,39.92
2023-02-14T05:01:43.608Z,39.08
2023-02-14T05:04:11.646Z,37.08
2023-02-14T05:06:39.324Z,37.88
2023-02-14T05:09:06.903Z,35.20
2023-02-14T05:11:34.623Z,36.08
2023-02-14T05:14:03.656Z,35.15
2023-02-14T05:16:31.870Z,39.33
2023-02-14T05:18:59.482Z,35.80
2023-02-14T05:21:28.445Z,40.30
2023-02-14T05:23:56.129Z,37.35
2023-02-14T05:26:23.730Z,37.08
2023-02-14T05:28:51.380Z,37.88
2023-02-14T05:31:20.400Z,34.92
2023-02-14T05:33:48.129Z,39.30
2023-02-14T05:36:15.763Z,34.70
2023-02-14T05:38:43.387Z,37.28
2023-02-14T05:41:10.997Z,36.35
2023-02-14T05:43:38.511Z,34.28
2023-02-14T05:46:06.373Z,33.30
2023-02-14T05:48:35.542Z,36.33
2023-02-14T05:51:04.956Z,36.05
2023-02-14T05:53:32.579Z,33.92
2023-02-14T05:56:00.178Z,37.45
2023-02-14T05:58:27.920Z,40.08
2023-02-14T06:00:57.587Z,36.90
2023-02-14T06:03:25.553Z,37.80
2023-02-14T06:05:54.541Z,37.13
2023-02-14T06:08:22.301Z,36.83
2023-02-14T06:10:49.921Z,35.88
2023-02-14T06:13:17.682Z,32.90
2023-02-14T06:15:45.239Z,31.83
2023-02-14T06:18:12.986Z,39.55
2023-02-14T06:20:40.576Z,31.83
2023-02-14T06:23:09.475Z,35.55
2023-02-14T06:25:37.105Z,34.45
2023-02-14T06:28:04.974Z,38.47
2023-02-14T06:30:32.741Z,34.88
2023-02-14T06:33:00.498Z,37.83
2023-02-14T06:35:28.096Z,34.60
2023-02-14T06:37:55.704Z,34.85
2023-02-14T06:40:25.156Z,35.42
2023-02-14T06:42:53.001Z,35.15
2023-02-14T06:45:20.600Z,37.53
2023-02-14T06:47:48.129Z,34.90
2023-02-14T06:50:15.723Z,34.63
2023-02-14T06:52:44.411Z,35.50
2023-02-14T06:55:13.784Z,35.72
2023-02-14T06:57:42.721Z,37.30
2023-02-14T07:00:11.264Z,34.17
2023-02-14T07:02:38.918Z,35.25
2023-02-14T07:05:07.010Z,31.67
2023-02-14T07:07:34.570Z,33.65
2023-02-14T07:10:02.231Z,32.92
2023-02-14T07:12:30.101Z,30.52
2023-02-14T07:14:59.024Z,34.50
2023-02-14T07:17:26.563Z,28.10
2023-02-14T07:19:54.174Z,32.20
2023-02-14T07:22:21.796Z,34.42
2023-02-14T07:24:49.333Z,33.50
2023-02-14T07:27:16.974Z,32.65
2023-02-14T07:29:44.922Z,33.72
2023-02-14T07:32:14.004Z,33.90
2023-02-14T07:34:41.649Z,37.35
2023-02-14T07:37:09.240Z,31.33
2023-02-14T07:39:36.982Z,31.73
2023-02-14T07:42:04.819Z,31.42
2023-02-14T07:44:33.257Z,30.70
2023-02-14T07:47:00.877Z,28.38
2023-02-14T07:49:29.801Z,31.00
2023-02-14T07:51:57.460Z,30.05
2023-02-14T07:54:25.176Z,28.42
2023-02-14T07:56:52.962Z,32.40
2023-02-14T07:59:20.499Z,27.52
2023-02-14T08:01:48.243Z,28.63
2023-02-14T08:04:15.901Z,28.65
2023-02-14T08:06:45.417Z,27.13
2023-02-14T08:09:24.515Z,27.08
2023-02-14T08:12:10.330Z,26.33
2023-02-14T08:14:37.973Z,28.20
2023-02-14T08:17:07.286Z,29.98
2023-02-14T08:19:35.034Z,29.02
2023-02-14T08:22:04.934Z,28.92
2023-02-14T08:24:32.685Z,29.00
2023-02-14T08:27:00.397Z,25.70
2023-02-14T08:29:27.994Z,24.58
2023-02-14T08:31:55.682Z,27.63
2023-02-14T08:34:23.333Z,23.17
2023-02-14T08:36:52.037Z,28.05
2023-02-14T08:39:20.974Z,25.10
2023-02-14T08:41:48.604Z,24.30
2023-02-14T08:44:16.668Z,26.25
2023-02-14T08:46:44.328Z,24.33
2023-02-14T08:49:12.228Z,25.80
2023-02-14T08:51:39.853Z,24.45
2023-02-14T08:54:07.628Z,24.63
2023-02-14T08:56:36.721Z,25.63
2023-02-14T08:59:04.351Z,26.45
2023-02-14T09:01:32.024Z,27.15
2023-02-14T09:04:00.144Z,25.70
2023-02-14T09:06:27.920Z,29.63
2023-02-14T09:08:55.540Z,29.45
2023-02-14T09:11:24.911Z,26.73
2023-02-14T09:13:54.529Z,24.38
2023-02-14T09:16:23.269Z,27.50
2023-02-14T09:18:52.670Z,28.27
2023-02-14T09:21:24.830Z,31.83
2023-02-14T09:23:52.601Z,29.67
2023-02-14T09:26:20.788Z,28.90
2023-02-14T09:28:49.306Z,25.63
2023-02-14T09:31:20.327Z,29.10
2023-02-14T09:34:07.323Z,32.75
2023-02-14T09:36:34.929Z,33.25
2023-02-14T09:39:02.746Z,28.23
2023-02-14T09:42:02.252Z,27.23
2023-02-14T09:44:35.267Z,26.05
2023-02-14T09:47:12.271Z,27.15
2023-02-14T09:49:40.901Z,27.08
2023-02-14T09:52:15.803Z,29.33
2023-02-14T09:54:48.388Z,24.88
2023-02-14T09:57:23.936Z,25.25
2023-02-14T09:59:54.752Z,25.40
2023-02-14T10:02:41.235Z,28.13
2023-02-14T10:05:15.238Z,22.35
2023-02-14T10:07:59.414Z,25.45
2023-02-14T10:10:32.715Z,28.38
2023-02-14T10:13:06.616Z,26.38
2023-02-14T10:15:37.843Z,30.13
2023-02-14T10:18:13.462Z,24.00
2023-02-14T10:20:44.530Z,28.63
2023-02-14T10:23:27.001Z,25.13
2023-02-14T10:25:58.355Z,29.27
2023-02-14T10:28:31.127Z,27.58
2023-02-14T10:31:12.405Z,26.20
2023-02-14T10:33:45.008Z,23.05
2023-02-14T10:36:22.313Z,25.25
2023-02-14T10:38:56.764Z,25.45
2023-02-14T10:41:32.716Z,24.23
2023-02-14T10:44:17.711Z,24.58
2023-02-14T10:46:50.159Z,26.23
2023-02-14T10:49:38.587Z,26.60
2023-02-14T10:52:14.311Z,24.92
2023-02-14T10:54:44.074Z,31.45
2023-02-14T10:57:16.229Z,22.88
2023-02-14T10:59:50.350Z,25.52
2023-02-14T11:02:21.471Z,25.13
2023-02-14T11:04:50.986Z,26.48
2023-02-14T11:07:21.309Z,26.73
2023-02-14T11:09:49.222Z,26.55
2023-02-14T11:12:37.401Z,25.08
2023-02-14T11:15:20.656Z,25.50
2023-02-14T11:17:48.367Z,28.13
2023-02-14T11:20:27.815Z,27.10
2023-02-14T11:22:55.383Z,27.42
2023-02-14T11:25:25.309Z,24.67
2023-02-14T11:27:59.310Z,25.13
2023-02-14T11:30:33.554Z,26.92
2023-02-14T11:33:01.496Z,26.35
2023-02-14T11:35:34.412Z,26.17
2023-02-14T11:38:03.879Z,23.35
2023-02-14T11:40:34.075Z,23.95
2023-02-14T11:43:18.664Z,26.13
2023-02-14T11:45:48.325Z,26.63
2023-02-14T11:48:22.406Z,29.33
2023-02-14T11:51:04.178Z,28.23
2023-02-14T11:53:45.487Z,25.75
2023-02-14T11:56:13.702Z,26.27
2023-02-14T11:58:48.433Z,25.13
2023-02-14T12:01:26.860Z,28.63
2023-02-14T12:03:58.542Z,25.85
2023-02-14T12:06:30.829Z,27.73
2023-02-14T12:09:12.633Z,28.17
2023-02-14T12:11:40.266Z,31.00
2023-02-14T12:14:22.130Z,30.92
2023-02-14T12:16:57.001Z,28.00
2023-02-14T12:19:34.031Z,25.85
2023-02-14T12:22:06.086Z,31.80
2023-02-14T12:24:36.379Z,30.10
2023-02-14T12:27:20.048Z,27.20
2023-02-14T12:29:52.172Z,30.20
2023-02-14T12:32:23.818Z,29.90
2023-02-14T12:34:52.692Z,29.38
2023-02-14T12:37:37.875Z,22.35
2023-02-14T12:40:17.272Z,24.98
2023-02-14T12:42:55.486Z,23.77
2023-02-14T12:45:30.608Z,26.98
2023-02-14T12:48:05.860Z,26.77
2023-02-14T12:50:45.267Z,26.92
2023-02-14T12:53:37.698Z,28.55
2023-02-14T12:56:12.798Z,27.83
2023-02-14T12:58:52.513Z,29.90
2023-02-14T13:01:39.478Z,24.30
2023-02-14T13:04:36.155Z,24.35
2023-02-14T13:07:13.321Z,22.08
2023-02-14T13:09:49.659Z,27.67
2023-02-14T13:12:33.569Z,25.38
2023-02-14T13:15:11.581Z,24.27
2023-02-14T13:17:45.384Z,25.98
2023-02-14T13:20:42.509Z,26.40
2023-02-14T13:23:15.711Z,25.75
2023-02-14T13:25:49.990Z,25.55
2023-02-14T13:28:18.160Z,27.38
2023-02-14T13:30:45.769Z,26.15
2023-02-14T13:33:34.034Z,26.95
2023-02-14T13:36:05.848Z,22.73
2023-02-14T13:38:33.828Z,26.52
2023-02-14T13:41:05.382Z,25.33
2023-02-14T13:43:51.633Z,28.75
2023-02-14T13:46:22.253Z,22.52
2023-02-14T13:49:01.391Z,23.95
2023-02-14T13:51:46.516Z,22.17
2023-02-14T13:54:31.229Z,24.00
2023-02-14T13:57:01.916Z,25.42
2023-02-14T13:59:32.038Z,26.33
2023-02-14T14:02:38.201Z,21.77
2023-02-14T14:05:47.562Z,24.23
2023-02-14T14:08:37.138Z,24.35
2023-02-14T14:11:07.372Z,21.65
2023-02-14T14:14:02.516Z,25.25
2023-02-14T14:16:33.271Z,24.70
2023-02-14T14:19:04.538Z,23.85
2023-02-14T14:21:34.662Z,25.67
2023-02-14T14:24:22.273Z,21.95
2023-02-14T14:26:51.594Z,26.98
2023-02-14T14:29:35.491Z,25.02
2023-02-14T14:32:10.025Z,23.42
2023-02-14T14:34:39.151Z,22.67
2023-02-14T14:37:09.071Z,22.25
2023-02-14T14:39:39.786Z,22.05
2023-02-14T14:42:09.643Z,22.67
2023-02-14T14:44:46.540Z,25.15
2023-02-14T14:47:18.608Z,25.63
2023-02-14T14:49:46.664Z,23.48
2023-02-14T14:52:33.942Z,22.80
2023-02-14T14:55:04.191Z,23.75
2023-02-14T14:57:31.903Z,23.17
2023-02-14T15:00:18.383Z,24.25
2023-02-14T15:03:01.569Z,23.05
2023-02-14T15:05:32.570Z,23.60
2023-02-14T15:08:17.743Z,25.85
2023-02-14T15:10:50.842Z,22.98
2023-02-14T15:13:36.249Z,22.52
2023-02-14T15:16:05.468Z,20.42
2023-02-14T15:18:33.149Z,24.65
2023-02-14T15:21:01.541Z,23.38
2023-02-14T15:23:29.680Z,22.98
2023-02-14T15:25:57.314Z,23.77
2023-02-14T15:28:29.768Z,23.92
2023-02-14T15:31:03.328Z,22.17
2023-02-14T15:33:33.948Z,21.52
2023-02-14T15:36:05.590Z,28.02
2023-02-14T15:38:37.363Z,22.30
2023-02-14T15:41:05.332Z,22.70
2023-02-14T15:43:34.559Z,21.77
2023-02-14T15:46:16.286Z,25.17
2023-02-14T15:48:46.490Z,23.13
2023-02-14T15:51:20.506Z,24.40
2023-02-14T15:53:52.717Z,24.55
2023-02-14T15:56:24.847Z,23.67
2023-02-14T15:59:00.179Z,21.13
2023-02-14T16:01:28.065Z,22.67
2023-02-14T16:04:00.560Z,22.30
2023-02-14T16:06:34.734Z,22.50
2023-02-14T16:09:03.778Z,21.38
2023-02-14T16:11:35.230Z,25.33
2023-02-14T16:14:29.754Z,23.70
2023-02-14T16:17:01.890Z,26.05
2023-02-14T16:19:36.786Z,24.92
2023-02-14T16:22:04.477Z,24.27
2023-02-14T16:24:32.127Z,25.20
2023-02-14T16:27:06.611Z,21.92
2023-02-14T16:29:36.149Z,22.85
2023-02-14T16:32:17.217Z,24.23
2023-02-14T16:34:48.149Z,22.50
2023-02-14T16:37:23.661Z,24.88
2023-02-14T16:39:53.767Z,23.35
2023-02-14T16:42:21.464Z,27.52
2023-02-14T16:44:49.452Z,26.10
2023-02-14T16:47:18.759Z,23.58
2023-02-14T16:49:48.557Z,22.48
2023-02-14T16:52:18.833Z,22.98
2023-02-14T16:54:46.511Z,24.92
2023-02-14T16:57:20.018Z,24.48
2023-02-14T16:59:47.946Z,26.55
2023-02-14T17:02:16.557Z,28.73
2023-02-14T17:04:44.804Z,23.75
2023-02-14T17:07:16.611Z,28.77
2023-02-14T17:09:47.971Z,30.55
2023-02-14T17:12:19.551Z,25.30
2023-02-14T17:14:50.521Z,26.80
2023-02-14T17:17:18.581Z,28.73
2023-02-14T17:19:46.479Z,30.75
2023-02-14T17:22:15.966Z,29.67
2023-02-14T17:24:43.522Z,30.50
2023-02-14T17:27:11.218Z,29.70
2023-02-14T17:29:38.762Z,29.50
2023-02-14T17:32:06.550Z,30.25
2023-02-14T17:34:34.630Z,32.40
2023-02-14T17:37:03.032Z,28.92
2023-02-14T17:39:31.956Z,28.70
2023-02-14T17:41:59.513Z,30.40
2023-02-14T17:44:29.575Z,26.55
2023-02-14T17:46:57.913Z,24.85
2023-02-14T17:49:25.626Z,25.55
2023-02-14T17:51:53.275Z,23.92
2023-02-14T17:54:20.905Z,27.35
2023-02-14T17:56:49.952Z,26.95
2023-02-14T17:59:17.656Z,25.85
2023-02-14T18:01:45.268Z,27.25
2023-02-14T18:04:12.929Z,29.08
2023-02-14T18:06:42.512Z,28.40
2023-02-14T18:09:10.097Z,28.23
2023-02-14T18:11:40.230Z,28.02
2023-02-14T18:14:09.458Z,31.67
2023-02-14T18:16:39.074Z,25.73
2023-02-14T18:19:09.978Z,29.40
2023-02-14T18:21:39.969Z,30.40
2023-02-14T18:24:08.228Z,32.25
2023-02-14T18:26:38.120Z,40.88
2023-02-14T18:29:06.556Z,40.55
2023-02-14T18:31:36.984Z,39.38
2023-02-14T18:34:05.051Z,31.83
2023-02-14T18:36:33.072Z,30.58
2023-02-14T18:39:00.937Z,32.65
2023-02-14T18:41:29.644Z,31.55
2023-02-14T18:43:57.486Z,27.45
2023-02-14T18:46:27.185Z,27.17
2023-02-14T18:48:56.775Z,29.10
2023-02-14T18:51:26.945Z,26.25
2023-02-14T18:53:56.105Z,29.85
2023-02-14T18:56:26.494Z,30.38
2023-02-14T18:58:57.068Z,27.27
2023-02-14T19:01:26.104Z,28.17
2023-02-14T19:03:54.557Z,31.50
2023-02-14T19:06:23.679Z,32.53
2023-02-14T19:08:52.720Z,27.10
2023-02-14T19:11:23.286Z,30.52
2023-02-14T19:13:54.163Z,29.27
2023-02-14T19:16:24.397Z,24.40
2023-02-14T19:18:53.388Z,32.15
2023-02-14T19:21:24.519Z,30.00
2023-02-14T19:23:53.783Z,30.40
2023-02-14T19:26:24.264Z,29.23
2023-02-14T19:28:56.722Z,28.98
2023-02-14T19:31:25.108Z,31.83
2023-02-14T19:33:52.866Z,31.92
2023-02-14T19:36:23.122Z,31.25
2023-02-14T19:38:53.275Z,30.85
2023-02-14T19:41:23.532Z,28.17
2023-02-14T19:43:52.471Z,31.83
2023-02-14T19:46:22.187Z,27.92
2023-02-14T19:48:49.953Z,30.70
2023-02-14T19:51:19.503Z,36.83
2023-02-14T19:53:47.175Z,29.85
2023-02-14T19:56:19.649Z,29.20
2023-02-14T19:58:47.390Z,34.10
2023-02-14T20:01:23.681Z,32.22
2023-02-14T20:03:51.354Z,31.60
2023-02-14T20:06:19.294Z,34.97
2023-02-14T20:08:47.712Z,32.75
2023-02-14T20:11:26.763Z,33.58
2023-02-14T20:13:55.082Z,34.13
2023-02-14T20:16:22.906Z,30.65
2023-02-14T20:18:50.635Z,35.85
2023-02-14T20:21:19.580Z,29.55
2023-02-14T20:23:47.165Z,33.17
2023-02-14T20:26:15.793Z,37.83
2023-02-14T20:28:45.217Z,33.58
2023-02-14T20:31:14.622Z,33.75
2023-02-14T20:33:42.637Z,37.45
2023-02-14T20:36:11.048Z,37.70
2023-02-14T20:38:38.674Z,34.33
2023-02-14T20:41:06.675Z,34.03
2023-02-14T20:43:34.381Z,33.25
2023-02-14T20:46:04.773Z,39.65
2023-02-14T20:48:32.938Z,36.75
2023-02-14T20:51:10.046Z,37.17
2023-02-14T20:53:37.608Z,37.10
2023-02-14T20:56:05.667Z,39.03
2023-02-14T20:58:33.848Z,36.17
2023-02-14T21:01:08.188Z,35.55
2023-02-14T21:03:37.340Z,36.38
2023-02-14T21:06:06.573Z,34.28
2023-02-14T21:08:34.522Z,35.08
2023-02-14T21:11:02.567Z,38.83
2023-02-14T21:13:31.118Z,40.28
2023-02-14T21:16:02.614Z,38.88
2023-02-14T21:18:32.757Z,38.22
2023-02-14T21:21:05.714Z,39.75
2023-02-14T21:23:33.628Z,36.47
2023-02-14T21:26:01.391Z,39.15
2023-02-14T21:28:29.342Z,38.70
2023-02-14T21:31:04.247Z,35.10
2023-02-14T21:33:33.677Z,35.72
2023-02-14T21:36:06.815Z,34.30
2023-02-14T21:38:34.579Z,38.20
2023-02-14T21:41:04.982Z,39.60
2023-02-14T21:43:35.161Z,38.50
2023-02-14T21:46:05.047Z,42.15
2023-02-14T21:48:51.594Z,37.67
2023-02-14T21:51:19.675Z,39.85
2023-02-14T21:53:47.521Z,40.03
2023-02-14T21:56:19.509Z,41.75
2023-02-14T21:58:48.434Z,38.25
2023-02-14T22:01:17.605Z,43.80
2023-02-14T22:03:46.910Z,41.22
2023-02-14T22:06:14.647Z,45.15
2023-02-14T22:08:43.002Z,41.00
2023-02-14T22:11:13.039Z,43.70
2023-02-14T22:13:42.047Z,39.88
2023-02-14T22:16:11.502Z,47.03
2023-02-14T22:18:39.611Z,43.78
2023-02-14T22:21:11.364Z,45.70
2023-02-14T22:23:39.560Z,43.15
2023-02-14T22:26:12.278Z,44.90
2023-02-14T22:28:40.040Z,43.15
2023-02-14T22:31:08.492Z,44.75
2023-02-14T22:33:37.824Z,48.55
2023-02-14T22:36:07.022Z,48.95
2023-02-14T22:38:36.929Z,44.90
2023-02-14T22:41:09.158Z,47.05
2023-02-14T22:43:37.845Z,45.42
2023-02-14T22:46:06.741Z,46.50
2023-02-14T22:48:35.654Z,50.65
2023-02-14T22:51:11.877Z,63.17
2023-02-14T22:53:40.825Z,55.80
2023-02-14T22:56:12.790Z,59.05
2023-02-14T22:58:40.758Z,67.53
2023-02-14T23:01:12.995Z,58.60
2023-02-14T23:03:40.637Z,53.22
2023-02-14T23:06:08.389Z,55.50
2023-02-14T23:08:38.691Z,53.90
2023-02-14T23:11:12.155Z,53.75
2023-02-14T23:13:57.411Z,49.58
2023-02-14T23:16:43.520Z,51.10
2023-02-14T23:19:31.895Z,46.80
2023-02-14T23:21:59.997Z,45.13
2023-02-14T23:24:27.758Z,50.20
2023-02-14T23:26:57.133Z,45.80
2023-02-14T23:29:24.849Z,43.97
2023-02-14T23:31:52.820Z,45.35
2023-02-14T23:34:21.213Z,45.90
2023-02-14T23:36:48.787Z,42.78
2023-02-14T23:39:16.320Z,43.72
2023-02-14T23:41:50.012Z,48.83
2023-02-14T23:44:21.571Z,42.85
2023-02-14T23:46:50.023Z,43.97
2023-02-14T23:49:18.454Z,41.80
2023-02-14T23:51:46.892Z,45.00
2023-02-14T23:54:15.182Z,44.13
2023-02-14T23:56:43.248Z,40.85
2023-02-14T23:59:10.915Z,42.13
